createdAt,value
2023-03-14T00:01:27.345Z,43.98
2023-03-14T00:03:56.204Z,44.18
2023-03-14T00:06:24.986Z,44.12
2023-03-14T00:08:55.713Z,44.04
2023-03-14T00:11:24.392Z,44.02
2023-03-14T00:13:53.301Z,44.41
2023-03-14T00:16:21.841Z,44.23
2023-03-14T00:18:50.824Z,44.31
2023-03-14T00:21:20.943Z,44.33
2023-03-14T00:23:49.663Z,44.28
2023-03-14T00:26:20.095Z,44.34
2023-03-14T00:28:51.722Z,44.60
2023-03-14T00:31:20.309Z,44.29
2023-03-14T00:33:49.289Z,44.34
2023-03-14T00:36:18.945Z,44.34
2023-03-14T00:38:49.916Z,44.23
2023-03-14T00:41:26.403Z,44.14
2023-03-14T00:43:55.228Z,44.61
2023-03-14T00:46:23.799Z,44.47
2023-03-14T00:48:52.656Z,44.48
2023-03-14T00:51:21.094Z,44.33
2023-03-14T00:53:50.161Z,44.46
2023-03-14T00:56:18.736Z,44.26
2023-03-14T00:58:47.694Z,44.32
2023-03-14T01:01:19.343Z,44.59
2023-03-14T01:03:48.615Z,44.55
2023-03-14T01:06:20.734Z,44.55
2023-03-14T01:08:49.562Z,44.77
2023-03-14T01:11:37.519Z,44.55
2023-03-14T01:14:06.443Z,44.25
2023-03-14T01:16:36.320Z,44.71
2023-03-14T01:19:05.307Z,44.54
2023-03-14T01:21:35.040Z,44.52
2023-03-14T01:24:05.492Z,44.66
2023-03-14T01:26:35.288Z,44.73
2023-03-14T01:29:05.233Z,44.42
2023-03-14T01:31:36.559Z,44.78
2023-03-14T01:34:05.504Z,44.86
2023-03-14T01:36:34.339Z,44.79
2023-03-14T01:39:04.666Z,44.78
2023-03-14T01:41:33.209Z,44.77
2023-03-14T01:44:02.641Z,44.79
2023-03-14T01:46:40.516Z,44.75
2023-03-14T01:49:33.586Z,44.84
2023-03-14T01:52:17.792Z,44.52
2023-03-14T01:54:51.222Z,44.91
2023-03-14T01:57:30.461Z,44.93
2023-03-14T02:00:15.446Z,44.53
2023-03-14T02:02:51.855Z,44.92
2023-03-14T02:05:35.731Z,45.04
2023-03-14T02:08:13.015Z,44.92
2023-03-14T02:10:52.984Z,44.98
2023-03-14T02:13:28.038Z,45.12
2023-03-14T02:16:15.274Z,45.02
2023-03-14T02:19:04.177Z,44.83
2023-03-14T02:21:58.600Z,44.99
2023-03-14T02:25:09.886Z,44.94
2023-03-14T02:27:39.004Z,45.28
2023-03-14T02:30:19.407Z,45.10
2023-03-14T02:32:53.190Z,45.37
2023-03-14T02:35:25.493Z,45.13
2023-03-14T02:38:04.414Z,45.29
2023-03-14T02:40:38.907Z,44.94
2023-03-14T02:43:08.814Z,45.13
2023-03-14T02:45:51.117Z,45.15
2023-03-14T02:48:47.991Z,45.03
2023-03-14T02:51:17.740Z,45.10
2023-03-14T02:53:49.516Z,45.18
2023-03-14T02:56:18.503Z,44.98
2023-03-14T02:58:47.286Z,45.07
2023-03-14T03:01:36.114Z,44.91
2023-03-14T03:04:05.465Z,45.19
2023-03-14T03:06:33.997Z,44.87
2023-03-14T03:09:03.230Z,44.98
2023-03-14T03:11:32.891Z,44.73
2023-03-14T03:14:02.284Z,44.86
2023-03-14T03:16:32.169Z,45.01
2023-03-14T03:19:02.840Z,45.07
2023-03-14T03:21:31.234Z,44.95
2023-03-14T03:24:00.093Z,45.03
2023-03-14T03:26:28.636Z,44.77
2023-03-14T03:28:57.507Z,44.95
2023-03-14T03:31:25.996Z,44.81
2023-03-14T03:33:55.262Z,44.89
2023-03-14T03:36:25.219Z,44.88
2023-03-14T03:38:54.155Z,44.93
2023-03-14T03:41:22.834Z,45.04
2023-03-14T03:43:53.159Z,44.72
2023-03-14T03:46:22.258Z,44.86
2023-03-14T03:48:59.861Z,44.85
2023-03-14T03:51:29.820Z,44.97
2023-03-14T03:53:59.600Z,44.90
2023-03-14T03:56:32.821Z,44.87
2023-03-14T03:59:02.662Z,44.82
2023-03-14T04:01:31.099Z,45.19
2023-03-14T04:04:02.736Z,44.76
2023-03-14T04:06:31.566Z,44.97
2023-03-14T04:09:02.764Z,44.81
2023-03-14T04:11:49.223Z,44.80
2023-03-14T04:14:38.513Z,44.95
2023-03-14T04:17:13.747Z,44.86
2023-03-14T04:19:43.360Z,44.70
2023-03-14T04:22:12.922Z,44.86
2023-03-14T04:24:52.173Z,44.71
2023-03-14T04:27:22.708Z,44.75
2023-03-14T04:29:51.654Z,44.75
2023-03-14T04:32:27.703Z,44.62
2023-03-14T04:34:58.082Z,44.65
2023-03-14T04:37:26.754Z,44.77
2023-03-14T04:39:56.479Z,44.90
2023-03-14T04:42:30.168Z,44.80
2023-03-14T04:44:59.457Z,44.90
2023-03-14T04:47:30.740Z,44.99
2023-03-14T04:50:00.356Z,44.80
2023-03-14T04:52:29.387Z,44.86
2023-03-14T04:54:59.383Z,44.98
2023-03-14T04:57:28.725Z,44.76
2023-03-14T04:59:58.268Z,44.73
2023-03-14T05:03:05.142Z,44.83
2023-03-14T05:06:12.730Z,44.77
2023-03-14T05:08:47.273Z,44.34
2023-03-14T05:11:25.096Z,44.90
2023-03-14T05:14:02.800Z,44.63
2023-03-14T05:16:50.339Z,44.62
2023-03-14T05:19:37.277Z,44.29
2023-03-14T05:22:26.669Z,44.50
2023-03-14T05:25:18.309Z,44.32
2023-03-14T05:28:10.370Z,44.16
2023-03-14T05:30:56.253Z,43.92
2023-03-14T05:33:36.148Z,43.77
2023-03-14T05:36:24.913Z,43.81
2023-03-14T05:39:13.935Z,43.78
2023-03-14T05:42:11.486Z,43.74
2023-03-14T05:45:00.056Z,43.77
2023-03-14T05:47:47.084Z,43.73
2023-03-14T05:50:26.117Z,43.80
2023-03-14T05:53:32.887Z,43.78
2023-03-14T05:56:22.122Z,44.00
2023-03-14T05:59:04.539Z,43.66
2023-03-14T06:01:44.673Z,43.79
2023-03-14T06:04:18.594Z,43.77
2023-03-14T06:06:52.507Z,43.76
2023-03-14T06:09:23.693Z,43.88
2023-03-14T06:11:54.430Z,43.96
2023-03-14T06:14:23.700Z,43.93
2023-03-14T06:16:55.319Z,44.13
2023-03-14T06:19:27.264Z,43.91
2023-03-14T06:21:56.186Z,44.17
2023-03-14T06:24:27.515Z,44.36
2023-03-14T06:26:56.871Z,44.17
2023-03-14T06:29:25.465Z,44.68
2023-03-14T06:31:54.606Z,44.55
2023-03-14T06:34:23.365Z,44.52
2023-03-14T06:36:52.386Z,44.32
2023-03-14T06:39:21.040Z,44.55
2023-03-14T06:41:55.144Z,44.73
2023-03-14T06:44:24.411Z,44.84
2023-03-14T06:46:53.261Z,44.78
2023-03-14T06:49:22.141Z,44.76
2023-03-14T06:51:54.456Z,45.05
2023-03-14T06:54:23.002Z,44.78
2023-03-14T06:56:51.813Z,44.99
2023-03-14T06:59:20.243Z,44.85
2023-03-14T07:01:52.102Z,44.92
2023-03-14T07:04:20.808Z,44.96
2023-03-14T07:06:51.431Z,45.09
2023-03-14T07:09:20.022Z,45.09
2023-03-14T07:12:00.961Z,45.23
2023-03-14T07:14:29.778Z,45.29
2023-03-14T07:16:58.664Z,45.29
2023-03-14T07:19:27.310Z,45.13
2023-03-14T07:21:56.143Z,45.45
2023-03-14T07:24:27.377Z,45.31
2023-03-14T07:26:56.343Z,45.55
2023-03-14T07:29:25.075Z,45.58
2023-03-14T07:31:55.202Z,45.66
2023-03-14T07:34:24.885Z,45.68
2023-03-14T07:36:53.993Z,45.91
2023-03-14T07:39:22.904Z,45.65
2023-03-14T07:42:12.331Z,46.15
2023-03-14T07:45:01.045Z,46.28
2023-03-14T07:47:29.953Z,46.37
2023-03-14T07:49:58.517Z,46.65
2023-03-14T07:52:27.519Z,46.04
2023-03-14T07:54:56.213Z,46.17
2023-03-14T07:57:25.470Z,46.37
2023-03-14T07:59:54.127Z,46.28
2023-03-14T08:02:25.199Z,46.15
2023-03-14T08:04:53.767Z,46.45
2023-03-14T08:07:22.695Z,46.23
2023-03-14T08:09:51.255Z,46.63
2023-03-14T08:12:20.178Z,46.70
2023-03-14T08:14:48.641Z,46.79
2023-03-14T08:17:17.463Z,48.41
2023-03-14T08:19:46.016Z,50.27
2023-03-14T08:22:16.004Z,49.21
2023-03-14T08:24:45.486Z,49.03
2023-03-14T08:27:16.166Z,48.54
2023-03-14T08:29:45.028Z,48.46
2023-03-14T08:32:14.190Z,48.15
2023-03-14T08:34:42.778Z,48.07
2023-03-14T08:37:23.840Z,48.32
2023-03-14T08:39:54.999Z,48.01
2023-03-14T08:42:23.853Z,48.25
2023-03-14T08:44:53.239Z,48.11
2023-03-14T08:47:22.155Z,48.26
2023-03-14T08:49:50.605Z,48.23
2023-03-14T08:52:19.551Z,48.25
2023-03-14T08:54:48.267Z,48.36
2023-03-14T08:57:17.387Z,48.21
2023-03-14T08:59:45.912Z,48.08
2023-03-14T09:02:15.184Z,48.30
2023-03-14T09:04:43.867Z,48.33
2023-03-14T09:07:12.773Z,48.11
2023-03-14T09:09:41.467Z,48.26
2023-03-14T09:12:10.302Z,48.15
2023-03-14T09:14:39.116Z,48.62
2023-03-14T09:17:08.981Z,48.21
2023-03-14T09:19:37.654Z,48.31
2023-03-14T09:22:06.734Z,48.43
2023-03-14T09:24:35.304Z,48.54
2023-03-14T09:27:04.607Z,48.30
2023-03-14T09:29:33.284Z,48.48
2023-03-14T09:32:02.523Z,48.50
2023-03-14T09:34:31.241Z,48.32
2023-03-14T09:37:00.719Z,48.21
2023-03-14T09:39:29.283Z,48.50
2023-03-14T09:41:59.229Z,48.46
2023-03-14T09:44:31.026Z,48.49
2023-03-14T09:47:08.646Z,48.52
2023-03-14T09:49:40.855Z,48.39
2023-03-14T09:52:18.292Z,48.41
2023-03-14T09:54:55.473Z,48.62
2023-03-14T09:57:26.771Z,48.66
2023-03-14T09:59:58.896Z,48.76
2023-03-14T10:02:36.793Z,48.74
2023-03-14T10:05:19.545Z,48.56
2023-03-14T10:07:48.541Z,48.62
2023-03-14T10:10:22.685Z,48.71
2023-03-14T10:13:23.209Z,48.72
2023-03-14T10:15:57.358Z,48.78
2023-03-14T10:18:29.122Z,49.30
2023-03-14T10:21:09.146Z,48.86
2023-03-14T10:23:38.409Z,48.94
2023-03-14T10:26:08.486Z,49.18
2023-03-14T10:28:54.206Z,48.97
2023-03-14T10:31:28.914Z,49.00
2023-03-14T10:34:05.780Z,49.23
2023-03-14T10:36:36.246Z,48.96
2023-03-14T10:39:28.370Z,48.97
2023-03-14T10:42:22.185Z,49.07
2023-03-14T10:44:57.278Z,49.00
2023-03-14T10:47:27.712Z,49.08
2023-03-14T10:49:58.008Z,48.75
2023-03-14T10:52:35.858Z,49.00
2023-03-14T10:55:15.025Z,49.00
2023-03-14T10:57:44.160Z,48.90
2023-03-14T11:00:24.005Z,49.08
2023-03-14T11:03:14.043Z,49.04
2023-03-14T11:05:59.206Z,49.25
2023-03-14T11:08:41.851Z,49.25
2023-03-14T11:11:30.990Z,49.14
2023-03-14T11:14:18.141Z,49.13
2023-03-14T11:17:01.287Z,49.23
2023-03-14T11:20:10.851Z,49.30
2023-03-14T11:22:43.642Z,49.31
2023-03-14T11:25:28.800Z,49.17
2023-03-14T11:28:47.883Z,49.40
2023-03-14T11:31:25.254Z,49.33
2023-03-14T11:34:06.396Z,49.06
2023-03-14T11:36:45.665Z,49.19
2023-03-14T11:39:19.475Z,48.99
2023-03-14T11:41:52.217Z,49.30
2023-03-14T11:44:33.572Z,49.52
2023-03-14T11:47:17.304Z,49.37
2023-03-14T11:50:00.188Z,49.53
2023-03-14T11:52:44.376Z,49.71
2023-03-14T11:55:41.442Z,50.16
2023-03-14T11:58:32.226Z,50.24
2023-03-14T12:01:08.000Z,50.38
2023-03-14T12:03:57.179Z,50.31
2023-03-14T12:06:49.534Z,50.75
2023-03-14T12:09:21.992Z,50.88
2023-03-14T12:11:59.908Z,50.65
2023-03-14T12:14:33.439Z,50.81
2023-03-14T12:17:36.281Z,50.88
2023-03-14T12:20:23.834Z,51.13
2023-03-14T12:23:04.177Z,51.28
2023-03-14T12:25:34.507Z,50.92
2023-03-14T12:28:18.418Z,51.05
2023-03-14T12:30:46.894Z,51.16
2023-03-14T12:33:18.422Z,51.34
2023-03-14T12:36:04.021Z,51.17
2023-03-14T12:38:44.933Z,51.15
2023-03-14T12:41:38.846Z,51.09
2023-03-14T12:44:32.847Z,51.23
2023-03-14T12:47:02.167Z,51.66
2023-03-14T12:49:34.140Z,51.96
2023-03-14T12:52:03.430Z,52.41
2023-03-14T12:54:49.821Z,52.84
2023-03-14T12:57:41.597Z,52.91
2023-03-14T13:00:36.096Z,52.90
2023-03-14T13:03:23.566Z,52.72
2023-03-14T13:05:59.683Z,52.75
2023-03-14T13:08:43.316Z,53.39
2023-03-14T13:11:20.742Z,53.00
2023-03-14T13:13:57.293Z,53.36
2023-03-14T13:16:26.247Z,53.13
2023-03-14T13:19:28.176Z,52.95
2023-03-14T13:22:30.667Z,53.15
2023-03-14T13:25:05.143Z,53.01
2023-03-14T13:27:36.062Z,53.00
2023-03-14T13:30:27.764Z,53.34
2023-03-14T13:32:57.077Z,52.80
2023-03-14T13:35:30.854Z,53.11
2023-03-14T13:38:17.630Z,53.20
2023-03-14T13:40:46.787Z,53.17
2023-03-14T13:43:22.957Z,52.99
2023-03-14T13:46:15.913Z,55.47
2023-03-14T13:48:53.953Z,55.71
2023-03-14T13:51:22.802Z,55.55
2023-03-14T13:53:56.638Z,56.04
2023-03-14T13:56:28.270Z,56.52
2023-03-14T13:58:57.613Z,57.12
2023-03-14T14:01:33.790Z,56.86
2023-03-14T14:04:15.422Z,56.79
2023-03-14T14:06:52.418Z,55.81
2023-03-14T14:09:44.720Z,55.04
2023-03-14T14:12:22.813Z,55.18
2023-03-14T14:14:59.726Z,54.58
2023-03-14T14:17:34.699Z,54.17
2023-03-14T14:20:06.628Z,54.09
2023-03-14T14:22:35.240Z,53.69
2023-03-14T14:25:04.542Z,53.67
2023-03-14T14:27:40.536Z,53.58
2023-03-14T14:30:21.123Z,53.83
2023-03-14T14:32:51.331Z,54.11
2023-03-14T14:35:36.495Z,53.67
2023-03-14T14:38:14.204Z,53.62
2023-03-14T14:40:47.663Z,53.21
2023-03-14T14:43:22.432Z,53.06
2023-03-14T14:45:53.131Z,53.08
2023-03-14T14:48:26.966Z,53.01
2023-03-14T14:51:05.122Z,52.84
2023-03-14T14:53:44.025Z,52.95
2023-03-14T14:56:28.843Z,52.79
2023-03-14T14:59:03.215Z,52.54
2023-03-14T15:01:40.603Z,52.49
2023-03-14T15:04:16.117Z,52.28
2023-03-14T15:06:48.151Z,52.08
2023-03-14T15:09:18.482Z,52.08
2023-03-14T15:11:49.172Z,51.89
2023-03-14T15:14:17.794Z,51.90
2023-03-14T15:16:47.085Z,51.75
2023-03-14T15:19:26.018Z,51.71
2023-03-14T15:21:55.251Z,51.50
2023-03-14T15:24:23.951Z,51.59
2023-03-14T15:26:53.172Z,51.61
2023-03-14T15:29:21.742Z,51.99
2023-03-14T15:31:50.778Z,51.74
2023-03-14T15:34:19.400Z,51.85
2023-03-14T15:36:48.354Z,51.89
2023-03-14T15:39:17.173Z,51.81
2023-03-14T15:41:46.209Z,51.59
2023-03-14T15:44:14.756Z,51.92
2023-03-14T15:46:43.585Z,51.71
2023-03-14T15:49:12.081Z,51.61
2023-03-14T15:51:40.912Z,51.74
2023-03-14T15:54:09.465Z,51.52
2023-03-14T15:56:40.430Z,51.86
2023-03-14T15:59:09.477Z,51.96
2023-03-14T16:01:38.784Z,51.83
2023-03-14T16:04:07.721Z,51.68
2023-03-14T16:06:38.171Z,51.96
2023-03-14T16:09:06.910Z,51.77
2023-03-14T16:11:36.238Z,51.70
2023-03-14T16:14:04.947Z,51.68
2023-03-14T16:16:34.117Z,51.52
2023-03-14T16:19:03.218Z,51.20
2023-03-14T16:21:33.889Z,51.31
2023-03-14T16:24:03.566Z,51.24
2023-03-14T16:26:35.360Z,51.27
2023-03-14T16:29:04.389Z,51.29
2023-03-14T16:31:33.592Z,51.16
2023-03-14T16:34:04.287Z,51.41
2023-03-14T16:36:33.639Z,51.41
2023-03-14T16:39:02.165Z,51.31
2023-03-14T16:41:31.876Z,51.36
2023-03-14T16:44:02.040Z,51.33
2023-03-14T16:46:31.450Z,51.36
2023-03-14T16:49:00.247Z,50.93
2023-03-14T16:51:29.354Z,51.31
2023-03-14T16:53:57.966Z,51.04
2023-03-14T16:56:26.967Z,51.27
2023-03-14T16:58:55.627Z,51.12
2023-03-14T17:01:24.500Z,50.97
2023-03-14T17:03:53.314Z,50.94
2023-03-14T17:06:28.181Z,51.16
2023-03-14T17:08:57.991Z,50.91
2023-03-14T17:11:27.165Z,51.03
2023-03-14T17:13:55.733Z,51.16
2023-03-14T17:16:25.013Z,51.14
2023-03-14T17:18:53.902Z,51.23
2023-03-14T17:21:23.651Z,51.26
2023-03-14T17:23:52.247Z,51.19
2023-03-14T17:26:21.254Z,51.08
2023-03-14T17:28:49.782Z,51.23
2023-03-14T17:31:19.625Z,50.98
2023-03-14T17:33:48.202Z,51.17
2023-03-14T17:36:18.265Z,51.30
2023-03-14T17:38:46.834Z,51.38
2023-03-14T17:41:16.401Z,51.42
2023-03-14T17:43:46.113Z,51.34
2023-03-14T17:46:15.961Z,51.30
2023-03-14T17:48:45.853Z,51.36
2023-03-14T17:51:15.256Z,51.45
2023-03-14T17:53:43.974Z,51.53
2023-03-14T17:56:12.917Z,51.46
2023-03-14T17:58:44.461Z,51.40
2023-03-14T18:01:21.403Z,51.61
2023-03-14T18:03:50.000Z,51.60
2023-03-14T18:06:19.067Z,51.89
2023-03-14T18:08:47.501Z,52.06
2023-03-14T18:11:17.161Z,52.02
2023-03-14T18:13:45.897Z,52.12
2023-03-14T18:16:14.847Z,52.13
2023-03-14T18:18:47.148Z,52.01
2023-03-14T18:21:18.082Z,51.98
2023-03-14T18:23:48.897Z,51.99
2023-03-14T18:26:18.210Z,51.86
2023-03-14T18:28:47.377Z,51.92
2023-03-14T18:31:19.061Z,52.21
2023-03-14T18:33:49.738Z,52.30
2023-03-14T18:36:18.744Z,52.35
2023-03-14T18:38:48.698Z,52.16
2023-03-14T18:41:20.212Z,52.31
2023-03-14T18:43:48.729Z,52.36
2023-03-14T18:46:17.866Z,52.34
2023-03-14T18:48:46.996Z,52.44
2023-03-14T18:51:16.369Z,52.43
2023-03-14T18:53:45.646Z,52.82
2023-03-14T18:56:14.820Z,52.64
2023-03-14T18:58:43.504Z,52.68
2023-03-14T19:01:12.882Z,52.68
2023-03-14T19:03:42.613Z,52.78
2023-03-14T19:06:12.931Z,52.48
2023-03-14T19:08:43.371Z,52.54
2023-03-14T19:11:13.513Z,52.81
2023-03-14T19:13:42.390Z,52.71
2023-03-14T19:16:15.009Z,52.95
2023-03-14T19:18:43.831Z,52.90
2023-03-14T19:21:13.662Z,52.67
2023-03-14T19:23:44.118Z,52.74
2023-03-14T19:26:16.442Z,52.79
2023-03-14T19:28:45.015Z,52.92
2023-03-14T19:31:14.321Z,52.79
2023-03-14T19:33:43.400Z,52.72
2023-03-14T19:36:33.775Z,52.70
2023-03-14T19:39:02.666Z,52.92
2023-03-14T19:41:31.964Z,52.75
2023-03-14T19:44:01.231Z,52.83
2023-03-14T19:46:33.332Z,52.85
2023-03-14T19:49:01.975Z,52.65
2023-03-14T19:51:31.675Z,52.38
2023-03-14T19:54:03.556Z,52.22
2023-03-14T19:56:33.641Z,52.34
2023-03-14T19:59:05.093Z,52.27
2023-03-14T20:01:35.551Z,52.35
2023-03-14T20:04:07.069Z,52.23
2023-03-14T20:06:36.247Z,52.66
2023-03-14T20:09:06.129Z,52.05
2023-03-14T20:11:40.409Z,52.42
2023-03-14T20:14:09.842Z,52.53
2023-03-14T20:16:39.242Z,52.23
2023-03-14T20:19:09.948Z,52.74
2023-03-14T20:21:39.063Z,52.72
2023-03-14T20:24:08.194Z,52.88
2023-03-14T20:26:38.355Z,52.64
2023-03-14T20:29:08.127Z,52.75
2023-03-14T20:31:39.224Z,52.96
2023-03-14T20:34:07.911Z,52.99
2023-03-14T20:36:38.340Z,52.78
2023-03-14T20:39:07.947Z,53.07
2023-03-14T20:41:43.093Z,52.80
2023-03-14T20:44:14.213Z,53.02
2023-03-14T20:46:46.648Z,52.80
2023-03-14T20:49:15.471Z,52.77
2023-03-14T20:51:45.827Z,52.87
2023-03-14T20:54:14.507Z,52.73
2023-03-14T20:56:46.836Z,52.93
2023-03-14T20:59:16.441Z,52.94
2023-03-14T21:04:54.128Z,52.92
2023-03-14T21:07:24.121Z,52.91
2023-03-14T21:09:52.876Z,52.96
2023-03-14T21:12:22.206Z,52.76
2023-03-14T21:14:51.788Z,53.20
2023-03-14T21:17:22.298Z,53.10
2023-03-14T21:19:58.695Z,53.02
2023-03-14T21:22:29.778Z,52.75
2023-03-14T21:24:58.277Z,52.96
2023-03-14T21:27:27.196Z,53.00
2023-03-14T21:29:55.690Z,53.10
2023-03-14T21:32:24.523Z,53.06
2023-03-14T21:34:53.496Z,53.19
2023-03-14T21:37:22.668Z,53.03
2023-03-14T21:39:51.332Z,53.05
2023-03-14T21:42:20.589Z,53.10
2023-03-14T21:44:49.110Z,53.10
2023-03-14T21:47:18.357Z,53.12
2023-03-14T21:49:47.328Z,53.06
2023-03-14T21:52:16.059Z,53.08
2023-03-14T21:54:44.498Z,53.28
2023-03-14T21:57:14.595Z,53.10
2023-03-14T21:59:44.901Z,53.05
2023-03-14T22:02:18.328Z,53.13
2023-03-14T22:04:46.903Z,52.96
2023-03-14T22:07:18.592Z,53.03
2023-03-14T22:09:47.787Z,52.96
2023-03-14T22:12:19.579Z,53.05
2023-03-14T22:14:48.801Z,52.96
2023-03-14T22:17:20.531Z,52.97
2023-03-14T22:19:49.022Z,52.98
2023-03-14T22:22:18.110Z,53.11
2023-03-14T22:24:46.702Z,52.89
2023-03-14T22:27:15.566Z,52.69
2023-03-14T22:29:44.080Z,52.83
2023-03-14T22:32:12.988Z,52.94
2023-03-14T22:34:41.476Z,52.88
2023-03-14T22:37:12.888Z,53.06
2023-03-14T22:39:41.547Z,52.90
2023-03-14T22:42:10.629Z,52.69
2023-03-14T22:44:39.160Z,52.88
2023-03-14T22:47:08.064Z,52.77
2023-03-14T22:49:36.518Z,52.79
2023-03-14T22:52:05.722Z,52.70
2023-03-14T22:54:34.165Z,52.73
2023-03-14T22:57:02.992Z,52.90
2023-03-14T22:59:31.455Z,52.92
2023-03-14T23:02:00.460Z,52.92
2023-03-14T23:04:29.021Z,52.96
2023-03-14T23:06:58.097Z,52.89
2023-03-14T23:09:26.715Z,52.73
2023-03-14T23:11:55.862Z,52.76
2023-03-14T23:14:24.348Z,53.03
2023-03-14T23:16:56.170Z,52.90
2023-03-14T23:19:26.235Z,52.59
2023-03-14T23:21:55.673Z,52.89
2023-03-14T23:24:24.209Z,52.83
2023-03-14T23:26:54.381Z,52.82
2023-03-14T23:29:22.825Z,52.68
2023-03-14T23:31:51.744Z,52.79
2023-03-14T23:34:20.757Z,52.53
2023-03-14T23:36:49.597Z,52.78
2023-03-14T23:39:18.069Z,52.65
2023-03-14T23:41:47.191Z,52.63
2023-03-14T23:44:15.698Z,52.67
2023-03-14T23:46:44.498Z,52.73
2023-03-14T23:49:13.410Z,52.62
2023-03-14T23:51:42.208Z,52.50
2023-03-14T23:54:10.697Z,52.65
2023-03-14T23:56:41.393Z,52.58
2023-03-14T23:59:09.936Z,52.66
